CYDL

Details ICAO CYDL (YDL)
Name DEASE LAKE
Region Canada
Timezone America/Vancouver (UTC-7.0)
Plans Departing 4
Arriving 4
Stats Elevation 2,600 ft / 792 m (AMSL)
Location 58.422221° -130.032216°
Runways 1
Magnetic Variation 19.225° E
Sunrise 2018-05-26 11:53:27 UTC / 2018-05-26 04:53:27 Local
Sunset 2018-05-27 05:23:51 UTC / 2018-05-26 22:23:51 Local
Advertisement - Login to hide

Runways

ID Width Length Bearing (true) Bearing (mag) Surface Threshold Offset Overrun Length
02 90 ft / 27 m 6,025 ft / 1,837 m 47.71° 28.49° Asphalt 0 ft / 0 m 0 ft / 0 m
20 90 ft / 27 m 6,025 ft / 1,837 m 227.73° 208.51° Asphalt 400 ft / 122 m 0 ft / 0 m

Map

Weather


0- 5 10 15 20 25 30 35+ Temperature / ° C

Clouds and Precipitation
Forecast for 2018-05-27 00:00 UTC. Updated 4 hours ago

Ground ~20,000 ft ~40,000 ft Winds

METAR

CYDL 270300Z AUTO 19009G16KT 160V230 9SM BKN070 OVC092 10/M02 A2968 RMK SLP062 DENSITY ALT 2800FT

TAF

TAF CYDL 262338Z 2700/2702 21010G20KT P6SM BKN060 OVC120 TEMPO 2700/2702 P6SM -SHRA BKN040 OVC080 RMK FCST BASED ON AUTO OBS. NXT FCST WILL BE ISSUED AT 271545Z

Frequencies

Unicom 123.20 MHz CTAF
Warning: Do not use this data for real-world aviation or navigation. No guarantee of current accuracy is given.